sensor_id;sensor_type;location;lat;lon;timestamp;temperature;humidity
66722;SHT31;53633;49.932;10.884;2022-12-29T00:00:10;6.85;81.99
66722;SHT31;53633;49.932;10.884;2022-12-29T00:02:39;6.76;82.26
66722;SHT31;53633;49.932;10.884;2022-12-29T00:05:06;6.75;82.27
66722;SHT31;53633;49.932;10.884;2022-12-29T00:07:33;6.93;81.85
66722;SHT31;53633;49.932;10.884;2022-12-29T00:10:00;6.83;81.74
66722;SHT31;53633;49.932;10.884;2022-12-29T00:12:27;6.81;82.12
66722;SHT31;53633;49.932;10.884;2022-12-29T00:14:53;6.86;82.20
66722;SHT31;53633;49.932;10.884;2022-12-29T00:17:20;6.81;82.52
66722;SHT31;53633;49.932;10.884;2022-12-29T00:19:48;6.83;82.95
66722;SHT31;53633;49.932;10.884;2022-12-29T00:22:15;6.86;82.85
66722;SHT31;53633;49.932;10.884;2022-12-29T00:24:43;6.97;82.60
66722;SHT31;53633;49.932;10.884;2022-12-29T00:27:12;6.99;82.42
66722;SHT31;53633;49.932;10.884;2022-12-29T00:29:39;6.90;82.55
66722;SHT31;53633;49.932;10.884;2022-12-29T00:32:07;6.83;82.86
66722;SHT31;53633;49.932;10.884;2022-12-29T00:34:35;6.83;82.92
66722;SHT31;53633;49.932;10.884;2022-12-29T00:37:04;6.78;83.24
66722;SHT31;53633;49.932;10.884;2022-12-29T00:39:31;6.75;83.49
66722;SHT31;53633;49.932;10.884;2022-12-29T00:42:03;6.79;83.32
66722;SHT31;53633;49.932;10.884;2022-12-29T00:44:29;6.85;83.19
66722;SHT31;53633;49.932;10.884;2022-12-29T00:46:56;6.79;82.92
66722;SHT31;53633;49.932;10.884;2022-12-29T00:49:23;6.81;83.23
66722;SHT31;53633;49.932;10.884;2022-12-29T00:51:50;6.79;83.23
66722;SHT31;53633;49.932;10.884;2022-12-29T00:54:19;6.88;82.89
66722;SHT31;53633;49.932;10.884;2022-12-29T00:56:46;6.90;82.73
66722;SHT31;53633;49.932;10.884;2022-12-29T00:59:13;6.93;82.75
66722;SHT31;53633;49.932;10.884;2022-12-29T01:01:40;6.95;82.78
66722;SHT31;53633;49.932;10.884;2022-12-29T01:04:07;7.07;82.42
66722;SHT31;53633;49.932;10.884;2022-12-29T01:06:38;7.01;82.44
66722;SHT31;53633;49.932;10.884;2022-12-29T01:09:06;7.06;82.59
66722;SHT31;53633;49.932;10.884;2022-12-29T01:11:35;7.03;82.43
66722;SHT31;53633;49.932;10.884;2022-12-29T01:14:02;7.07;82.53
66722;SHT31;53633;49.932;10.884;2022-12-29T01:16:29;7.04;82.39
66722;SHT31;53633;49.932;10.884;2022-12-29T01:18:55;7.10;82.43
66722;SHT31;53633;49.932;10.884;2022-12-29T01:21:22;7.14;82.50
66722;SHT31;53633;49.932;10.884;2022-12-29T01:23:49;7.14;82.16
66722;SHT31;53633;49.932;10.884;2022-12-29T01:26:17;7.17;82.24
66722;SHT31;53633;49.932;10.884;2022-12-29T01:28:45;7.07;82.35
66722;SHT31;53633;49.932;10.884;2022-12-29T01:31:13;7.11;82.30
66722;SHT31;53633;49.932;10.884;2022-12-29T01:33:41;7.11;82.30
66722;SHT31;53633;49.932;10.884;2022-12-29T01:36:10;7.16;81.97
66722;SHT31;53633;49.932;10.884;2022-12-29T01:38:38;7.28;81.73
66722;SHT31;53633;49.932;10.884;2022-12-29T01:41:06;7.34;81.33
66722;SHT31;53633;49.932;10.884;2022-12-29T01:43:41;7.31;81.47
66722;SHT31;53633;49.932;10.884;2022-12-29T01:46:15;7.24;81.81
66722;SHT31;53633;49.932;10.884;2022-12-29T01:48:45;7.24;81.61
66722;SHT31;53633;49.932;10.884;2022-12-29T01:51:12;7.31;81.64
66722;SHT31;53633;49.932;10.884;2022-12-29T01:53:39;7.30;81.45
66722;SHT31;53633;49.932;10.884;2022-12-29T01:56:08;7.32;81.61
66722;SHT31;53633;49.932;10.884;2022-12-29T01:58:39;7.30;81.66
66722;SHT31;53633;49.932;10.884;2022-12-29T02:01:08;7.40;81.41
66722;SHT31;53633;49.932;10.884;2022-12-29T02:03:37;7.40;81.36
66722;SHT31;53633;49.932;10.884;2022-12-29T02:06:08;7.38;81.46
66722;SHT31;53633;49.932;10.884;2022-12-29T02:08:37;7.47;81.12
66722;SHT31;53633;49.932;10.884;2022-12-29T02:11:05;7.44;81.23
66722;SHT31;53633;49.932;10.884;2022-12-29T02:13:32;7.47;81.35
66722;SHT31;53633;49.932;10.884;2022-12-29T02:16:06;7.54;80.88
66722;SHT31;53633;49.932;10.884;2022-12-29T02:18:44;7.57;81.17
66722;SHT31;53633;49.932;10.884;2022-12-29T02:21:52;7.59;81.24
66722;SHT31;53633;49.932;10.884;2022-12-29T02:27:55;7.61;81.26
66722;SHT31;53633;49.932;10.884;2022-12-29T02:30:44;7.68;81.13
66722;SHT31;53633;49.932;10.884;2022-12-29T02:33:22;7.72;80.92
66722;SHT31;53633;49.932;10.884;2022-12-29T02:35:55;7.71;81.26
66722;SHT31;53633;49.932;10.884;2022-12-29T02:38:33;7.72;81.18
66722;SHT31;53633;49.932;10.884;2022-12-29T02:41:05;7.83;80.74
66722;SHT31;53633;49.932;10.884;2022-12-29T02:43:38;7.83;80.98
66722;SHT31;53633;49.932;10.884;2022-12-29T02:46:13;7.92;80.49
66722;SHT31;53633;49.932;10.884;2022-12-29T02:48:47;7.90;80.48
66722;SHT31;53633;49.932;10.884;2022-12-29T02:51:20;7.97;80.08
66722;SHT31;53633;49.932;10.884;2022-12-29T02:53:50;8.07;79.90
66722;SHT31;53633;49.932;10.884;2022-12-29T02:56:18;8.13;79.76
66722;SHT31;53633;49.932;10.884;2022-12-29T02:58:45;8.20;79.58
66722;SHT31;53633;49.932;10.884;2022-12-29T03:01:23;8.26;79.44
66722;SHT31;53633;49.932;10.884;2022-12-29T03:04:04;8.29;79.18
66722;SHT31;53633;49.932;10.884;2022-12-29T03:06:44;8.23;79.39
66722;SHT31;53633;49.932;10.884;2022-12-29T03:09:18;8.34;78.83
66722;SHT31;53633;49.932;10.884;2022-12-29T03:11:54;8.30;78.76
66722;SHT31;53633;49.932;10.884;2022-12-29T03:14:27;8.34;78.50
66722;SHT31;53633;49.932;10.884;2022-12-29T03:17:00;8.40;78.41
66722;SHT31;53633;49.932;10.884;2022-12-29T03:19:32;8.41;78.41
66722;SHT31;53633;49.932;10.884;2022-12-29T03:22:03;8.38;78.68
66722;SHT31;53633;49.932;10.884;2022-12-29T03:24:38;8.33;78.95
66722;SHT31;53633;49.932;10.884;2022-12-29T03:27:09;8.40;78.46
66722;SHT31;53633;49.932;10.884;2022-12-29T03:29:40;8.38;78.87
66722;SHT31;53633;49.932;10.884;2022-12-29T03:32:12;8.44;79.00
66722;SHT31;53633;49.932;10.884;2022-12-29T03:34:39;8.55;79.07
66722;SHT31;53633;49.932;10.884;2022-12-29T03:37:10;8.55;79.24
66722;SHT31;53633;49.932;10.884;2022-12-29T03:39:37;8.58;79.33
66722;SHT31;53633;49.932;10.884;2022-12-29T03:42:06;8.55;79.72
66722;SHT31;53633;49.932;10.884;2022-12-29T03:44:38;8.50;80.28
66722;SHT31;53633;49.932;10.884;2022-12-29T03:47:06;8.45;80.79
66722;SHT31;53633;49.932;10.884;2022-12-29T03:49:34;8.41;81.20
66722;SHT31;53633;49.932;10.884;2022-12-29T03:52:01;8.47;81.55
66722;SHT31;53633;49.932;10.884;2022-12-29T03:54:27;8.54;81.69
66722;SHT31;53633;49.932;10.884;2022-12-29T03:56:54;8.52;82.09
66722;SHT31;53633;49.932;10.884;2022-12-29T03:59:21;8.54;82.09
66722;SHT31;53633;49.932;10.884;2022-12-29T04:01:48;8.54;82.48
66722;SHT31;53633;49.932;10.884;2022-12-29T04:04:15;8.52;83.47
66722;SHT31;53633;49.932;10.884;2022-12-29T04:06:44;8.47;83.62
66722;SHT31;53633;49.932;10.884;2022-12-29T04:09:11;8.47;83.75
66722;SHT31;53633;49.932;10.884;2022-12-29T04:11:38;8.40;84.10
66722;SHT31;53633;49.932;10.884;2022-12-29T04:14:04;8.45;84.10
66722;SHT31;53633;49.932;10.884;2022-12-29T04:16:31;8.33;84.76
66722;SHT31;53633;49.932;10.884;2022-12-29T04:18:59;8.37;84.78
66722;SHT31;53633;49.932;10.884;2022-12-29T04:21:25;8.37;84.70
66722;SHT31;53633;49.932;10.884;2022-12-29T04:23:53;8.40;84.82
66722;SHT31;53633;49.932;10.884;2022-12-29T04:26:20;8.40;84.73
66722;SHT31;53633;49.932;10.884;2022-12-29T04:28:47;8.33;84.81
66722;SHT31;53633;49.932;10.884;2022-12-29T04:31:13;8.36;84.72
66722;SHT31;53633;49.932;10.884;2022-12-29T04:33:40;8.37;84.54
66722;SHT31;53633;49.932;10.884;2022-12-29T04:36:07;8.37;84.33
66722;SHT31;53633;49.932;10.884;2022-12-29T04:38:34;8.33;84.11
66722;SHT31;53633;49.932;10.884;2022-12-29T04:41:03;8.36;83.90
66722;SHT31;53633;49.932;10.884;2022-12-29T04:43:30;8.37;83.51
66722;SHT31;53633;49.932;10.884;2022-12-29T04:45:57;8.42;83.43
66722;SHT31;53633;49.932;10.884;2022-12-29T04:48:24;8.41;83.46
66722;SHT31;53633;49.932;10.884;2022-12-29T04:50:50;8.34;83.34
66722;SHT31;53633;49.932;10.884;2022-12-29T04:53:17;8.33;83.47
66722;SHT31;53633;49.932;10.884;2022-12-29T04:55:47;8.30;83.56
66722;SHT31;53633;49.932;10.884;2022-12-29T04:58:15;8.27;83.31
66722;SHT31;53633;49.932;10.884;2022-12-29T05:00:48;8.26;83.05
66722;SHT31;53633;49.932;10.884;2022-12-29T05:03:16;8.20;83.07
66722;SHT31;53633;49.932;10.884;2022-12-29T05:05:43;8.17;83.34
66722;SHT31;53633;49.932;10.884;2022-12-29T05:08:10;8.07;83.38
66722;SHT31;53633;49.932;10.884;2022-12-29T05:10:37;8.09;83.38
66722;SHT31;53633;49.932;10.884;2022-12-29T05:13:04;8.04;83.17
66722;SHT31;53633;49.932;10.884;2022-12-29T05:15:32;8.04;83.17
66722;SHT31;53633;49.932;10.884;2022-12-29T05:17:59;8.04;82.92
66722;SHT31;53633;49.932;10.884;2022-12-29T05:20:25;8.07;82.73
66722;SHT31;53633;49.932;10.884;2022-12-29T05:22:52;8.07;82.81
66722;SHT31;53633;49.932;10.884;2022-12-29T05:25:19;8.09;82.33
66722;SHT31;53633;49.932;10.884;2022-12-29T05:27:46;8.02;82.40
66722;SHT31;53633;49.932;10.884;2022-12-29T05:30:13;7.95;82.05
66722;SHT31;53633;49.932;10.884;2022-12-29T05:32:41;7.72;82.78
66722;SHT31;53633;49.932;10.884;2022-12-29T05:35:08;7.58;83.27
66722;SHT31;53633;49.932;10.884;2022-12-29T05:37:35;7.55;83.25
66722;SHT31;53633;49.932;10.884;2022-12-29T05:40:02;7.52;83.62
66722;SHT31;53633;49.932;10.884;2022-12-29T05:42:29;7.47;83.55
66722;SHT31;53633;49.932;10.884;2022-12-29T05:44:56;7.48;83.72
66722;SHT31;53633;49.932;10.884;2022-12-29T05:47:23;7.51;83.70
66722;SHT31;53633;49.932;10.884;2022-12-29T05:49:51;7.55;83.52
66722;SHT31;53633;49.932;10.884;2022-12-29T05:52:17;7.59;83.44
66722;SHT31;53633;49.932;10.884;2022-12-29T05:54:44;7.62;82.82
66722;SHT31;53633;49.932;10.884;2022-12-29T05:57:11;7.59;83.07
66722;SHT31;53633;49.932;10.884;2022-12-29T05:59:38;7.62;83.06
66722;SHT31;53633;49.932;10.884;2022-12-29T06:02:04;7.69;82.89
66722;SHT31;53633;49.932;10.884;2022-12-29T06:04:31;7.66;82.69
66722;SHT31;53633;49.932;10.884;2022-12-29T06:06:59;7.72;82.50
66722;SHT31;53633;49.932;10.884;2022-12-29T06:09:26;7.76;82.41
66722;SHT31;53633;49.932;10.884;2022-12-29T06:11:53;7.79;82.42
66722;SHT31;53633;49.932;10.884;2022-12-29T06:14:20;7.83;82.27
66722;SHT31;53633;49.932;10.884;2022-12-29T06:16:46;7.81;82.39
66722;SHT31;53633;49.932;10.884;2022-12-29T06:19:13;7.76;82.23
66722;SHT31;53633;49.932;10.884;2022-12-29T06:21:40;7.76;82.42
66722;SHT31;53633;49.932;10.884;2022-12-29T06:24:08;7.79;82.15
66722;SHT31;53633;49.932;10.884;2022-12-29T06:26:35;7.81;82.32
66722;SHT31;53633;49.932;10.884;2022-12-29T06:29:02;7.81;82.64
66722;SHT31;53633;49.932;10.884;2022-12-29T06:31:29;7.82;82.82
66722;SHT31;53633;49.932;10.884;2022-12-29T06:33:56;7.81;83.17
66722;SHT31;53633;49.932;10.884;2022-12-29T06:36:22;7.81;83.33
66722;SHT31;53633;49.932;10.884;2022-12-29T06:38:49;7.72;83.60
66722;SHT31;53633;49.932;10.884;2022-12-29T06:41:17;7.76;83.10
66722;SHT31;53633;49.932;10.884;2022-12-29T06:43:44;7.76;82.97
66722;SHT31;53633;49.932;10.884;2022-12-29T06:46:11;7.82;82.98
66722;SHT31;53633;49.932;10.884;2022-12-29T06:48:37;7.85;82.86
66722;SHT31;53633;49.932;10.884;2022-12-29T06:51:04;7.82;82.51
66722;SHT31;53633;49.932;10.884;2022-12-29T06:53:31;7.82;82.23
66722;SHT31;53633;49.932;10.884;2022-12-29T06:55:58;7.87;82.12
66722;SHT31;53633;49.932;10.884;2022-12-29T06:58:26;7.90;82.16
66722;SHT31;53633;49.932;10.884;2022-12-29T07:00:52;7.95;82.32
66722;SHT31;53633;49.932;10.884;2022-12-29T07:03:19;7.99;81.82
66722;SHT31;53633;49.932;10.884;2022-12-29T07:05:46;7.97;81.98
66722;SHT31;53633;49.932;10.884;2022-12-29T07:08:13;7.96;81.85
66722;SHT31;53633;49.932;10.884;2022-12-29T07:10:41;7.95;81.63
66722;SHT31;53633;49.932;10.884;2022-12-29T07:13:08;7.97;81.42
66722;SHT31;53633;49.932;10.884;2022-12-29T07:15:36;7.95;81.45
66722;SHT31;53633;49.932;10.884;2022-12-29T07:18:04;7.97;81.53
66722;SHT31;53633;49.932;10.884;2022-12-29T07:20:30;7.96;81.37
66722;SHT31;53633;49.932;10.884;2022-12-29T07:22:57;8.04;81.05
66722;SHT31;53633;49.932;10.884;2022-12-29T07:25:24;7.97;81.32
66722;SHT31;53633;49.932;10.884;2022-12-29T07:27:51;8.02;81.09
66722;SHT31;53633;49.932;10.884;2022-12-29T07:30:18;8.04;80.79
66722;SHT31;53633;49.932;10.884;2022-12-29T07:32:46;8.07;80.97
66722;SHT31;53633;49.932;10.884;2022-12-29T07:35:12;8.10;80.69
66722;SHT31;53633;49.932;10.884;2022-12-29T07:37:39;8.12;80.56
66722;SHT31;53633;49.932;10.884;2022-12-29T07:40:08;8.14;80.52
66722;SHT31;53633;49.932;10.884;2022-12-29T07:42:35;8.22;80.08
66722;SHT31;53633;49.932;10.884;2022-12-29T07:45:02;8.24;80.13
66722;SHT31;53633;49.932;10.884;2022-12-29T07:47:29;8.29;79.73
66722;SHT31;53633;49.932;10.884;2022-12-29T07:49:57;8.31;80.19
66722;SHT31;53633;49.932;10.884;2022-12-29T07:52:24;8.29;80.75
66722;SHT31;53633;49.932;10.884;2022-12-29T07:54:51;8.24;81.27
66722;SHT31;53633;49.932;10.884;2022-12-29T07:57:18;8.26;81.08
66722;SHT31;53633;49.932;10.884;2022-12-29T07:59:44;8.23;81.09
66722;SHT31;53633;49.932;10.884;2022-12-29T08:02:12;8.23;81.24
66722;SHT31;53633;49.932;10.884;2022-12-29T08:04:39;8.24;81.20
66722;SHT31;53633;49.932;10.884;2022-12-29T08:07:07;8.23;80.94
66722;SHT31;53633;49.932;10.884;2022-12-29T08:09:34;8.30;80.85
66722;SHT31;53633;49.932;10.884;2022-12-29T08:12:01;8.34;81.11
66722;SHT31;53633;49.932;10.884;2022-12-29T08:14:27;8.31;81.58
66722;SHT31;53633;49.932;10.884;2022-12-29T08:16:54;8.30;81.64
66722;SHT31;53633;49.932;10.884;2022-12-29T08:19:21;8.33;81.56
66722;SHT31;53633;49.932;10.884;2022-12-29T08:21:48;8.36;81.30
66722;SHT31;53633;49.932;10.884;2022-12-29T08:24:16;8.36;81.28
66722;SHT31;53633;49.932;10.884;2022-12-29T08:26:42;8.36;81.25
66722;SHT31;53633;49.932;10.884;2022-12-29T08:29:09;8.37;81.15
66722;SHT31;53633;49.932;10.884;2022-12-29T08:31:36;8.36;81.33
66722;SHT31;53633;49.932;10.884;2022-12-29T08:34:03;8.40;81.12
66722;SHT31;53633;49.932;10.884;2022-12-29T08:36:30;8.40;81.23
66722;SHT31;53633;49.932;10.884;2022-12-29T08:38:57;8.36;81.27
66722;SHT31;53633;49.932;10.884;2022-12-29T08:41:25;8.44;81.20
66722;SHT31;53633;49.932;10.884;2022-12-29T08:43:52;8.51;80.59
66722;SHT31;53633;49.932;10.884;2022-12-29T08:46:19;8.58;80.25
66722;SHT31;53633;49.932;10.884;2022-12-29T08:48:46;8.55;80.63
66722;SHT31;53633;49.932;10.884;2022-12-29T08:51:12;8.60;80.81
66722;SHT31;53633;49.932;10.884;2022-12-29T08:53:39;8.61;80.12
66722;SHT31;53633;49.932;10.884;2022-12-29T08:56:08;8.65;80.26
66722;SHT31;53633;49.932;10.884;2022-12-29T08:58:36;8.68;79.56
66722;SHT31;53633;49.932;10.884;2022-12-29T09:01:03;8.72;79.67
66722;SHT31;53633;49.932;10.884;2022-12-29T09:03:30;8.73;79.23
66722;SHT31;53633;49.932;10.884;2022-12-29T09:06:17;8.80;79.00
66722;SHT31;53633;49.932;10.884;2022-12-29T09:08:44;8.79;79.04
66722;SHT31;53633;49.932;10.884;2022-12-29T09:11:14;8.83;78.27
66722;SHT31;53633;49.932;10.884;2022-12-29T09:13:42;8.86;77.98
66722;SHT31;53633;49.932;10.884;2022-12-29T09:16:09;8.89;77.89
66722;SHT31;53633;49.932;10.884;2022-12-29T09:18:36;8.98;77.32
66722;SHT31;53633;49.932;10.884;2022-12-29T09:21:05;8.95;77.15
66722;SHT31;53633;49.932;10.884;2022-12-29T09:23:33;8.98;77.13
66722;SHT31;53633;49.932;10.884;2022-12-29T09:26:00;8.96;76.39
66722;SHT31;53633;49.932;10.884;2022-12-29T09:28:26;8.99;76.40
66722;SHT31;53633;49.932;10.884;2022-12-29T09:30:55;9.03;76.17
66722;SHT31;53633;49.932;10.884;2022-12-29T09:33:23;9.06;75.76
66722;SHT31;53633;49.932;10.884;2022-12-29T09:35:51;9.07;75.69
66722;SHT31;53633;49.932;10.884;2022-12-29T09:38:18;9.16;75.33
66722;SHT31;53633;49.932;10.884;2022-12-29T09:40:49;9.16;75.43
66722;SHT31;53633;49.932;10.884;2022-12-29T09:43:29;9.13;75.22
66722;SHT31;53633;49.932;10.884;2022-12-29T09:46:07;9.22;75.09
66722;SHT31;53633;49.932;10.884;2022-12-29T09:48:41;9.26;74.47
66722;SHT31;53633;49.932;10.884;2022-12-29T09:51:13;9.24;74.64
66722;SHT31;53633;49.932;10.884;2022-12-29T09:53:43;9.23;74.53
66722;SHT31;53633;49.932;10.884;2022-12-29T09:56:15;9.30;74.47
66722;SHT31;53633;49.932;10.884;2022-12-29T09:58:47;9.28;74.50
66722;SHT31;53633;49.932;10.884;2022-12-29T10:01:24;9.34;74.29
66722;SHT31;53633;49.932;10.884;2022-12-29T10:03:55;9.31;74.37
66722;SHT31;53633;49.932;10.884;2022-12-29T10:06:25;9.38;74.58
66722;SHT31;53633;49.932;10.884;2022-12-29T10:08:58;9.34;74.45
66722;SHT31;53633;49.932;10.884;2022-12-29T10:11:38;9.34;75.49
66722;SHT31;53633;49.932;10.884;2022-12-29T10:14:20;9.36;76.13
66722;SHT31;53633;49.932;10.884;2022-12-29T10:17:00;9.28;76.79
66722;SHT31;53633;49.932;10.884;2022-12-29T10:19:39;9.31;77.12
66722;SHT31;53633;49.932;10.884;2022-12-29T10:22:18;9.28;76.65
66722;SHT31;53633;49.932;10.884;2022-12-29T10:24:48;9.27;76.89
66722;SHT31;53633;49.932;10.884;2022-12-29T10:27:18;9.36;76.78
66722;SHT31;53633;49.932;10.884;2022-12-29T10:29:48;9.36;77.36
66722;SHT31;53633;49.932;10.884;2022-12-29T10:32:27;9.34;77.81
66722;SHT31;53633;49.932;10.884;2022-12-29T10:34:57;9.28;78.60
66722;SHT31;53633;49.932;10.884;2022-12-29T10:37:30;9.24;79.21
66722;SHT31;53633;49.932;10.884;2022-12-29T10:40:03;9.17;79.53
66722;SHT31;53633;49.932;10.884;2022-12-29T10:42:41;9.16;79.53
66722;SHT31;53633;49.932;10.884;2022-12-29T10:45:12;9.13;79.67
66722;SHT31;53633;49.932;10.884;2022-12-29T10:47:50;9.17;79.34
66722;SHT31;53633;49.932;10.884;2022-12-29T10:50:18;9.27;79.01
66722;SHT31;53633;49.932;10.884;2022-12-29T10:52:46;9.28;79.09
66722;SHT31;53633;49.932;10.884;2022-12-29T10:55:15;9.28;79.22
66722;SHT31;53633;49.932;10.884;2022-12-29T10:57:45;9.38;79.07
66722;SHT31;53633;49.932;10.884;2022-12-29T11:00:13;9.43;79.29
66722;SHT31;53633;49.932;10.884;2022-12-29T11:03:02;9.47;79.23
66722;SHT31;53633;49.932;10.884;2022-12-29T11:05:35;9.48;78.99
66722;SHT31;53633;49.932;10.884;2022-12-29T11:08:09;9.47;79.29
66722;SHT31;53633;49.932;10.884;2022-12-29T11:10:38;9.44;79.15
66722;SHT31;53633;49.932;10.884;2022-12-29T11:13:11;9.51;79.30
66722;SHT31;53633;49.932;10.884;2022-12-29T11:15:40;9.59;79.09
66722;SHT31;53633;49.932;10.884;2022-12-29T11:18:18;9.67;78.81
66722;SHT31;53633;49.932;10.884;2022-12-29T11:20:45;9.71;78.60
66722;SHT31;53633;49.932;10.884;2022-12-29T11:23:23;9.78;78.35
66722;SHT31;53633;49.932;10.884;2022-12-29T11:26:13;9.83;77.91
66722;SHT31;53633;49.932;10.884;2022-12-29T11:28:42;9.82;78.06
66722;SHT31;53633;49.932;10.884;2022-12-29T11:31:09;9.93;78.02
66722;SHT31;53633;49.932;10.884;2022-12-29T11:33:38;9.98;77.56
66722;SHT31;53633;49.932;10.884;2022-12-29T11:36:07;10.12;77.30
66722;SHT31;53633;49.932;10.884;2022-12-29T11:38:36;10.23;76.86
66722;SHT31;53633;49.932;10.884;2022-12-29T11:41:04;10.28;76.90
66722;SHT31;53633;49.932;10.884;2022-12-29T11:43:34;10.36;76.17
66722;SHT31;53633;49.932;10.884;2022-12-29T11:46:05;10.39;76.38
66722;SHT31;53633;49.932;10.884;2022-12-29T11:48:37;10.43;76.42
66722;SHT31;53633;49.932;10.884;2022-12-29T11:51:07;10.41;76.38
66722;SHT31;53633;49.932;10.884;2022-12-29T11:53:38;10.40;76.26
66722;SHT31;53633;49.932;10.884;2022-12-29T11:56:08;10.39;76.62
66722;SHT31;53633;49.932;10.884;2022-12-29T11:58:38;10.50;76.54
66722;SHT31;53633;49.932;10.884;2022-12-29T12:01:07;10.72;76.04
66722;SHT31;53633;49.932;10.884;2022-12-29T12:03:37;10.74;75.83
66722;SHT31;53633;49.932;10.884;2022-12-29T12:06:11;10.72;75.81
66722;SHT31;53633;49.932;10.884;2022-12-29T12:08:43;10.75;76.01
66722;SHT31;53633;49.932;10.884;2022-12-29T12:11:15;10.77;76.04
66722;SHT31;53633;49.932;10.884;2022-12-29T12:13:46;10.77;76.06
66722;SHT31;53633;49.932;10.884;2022-12-29T12:16:18;10.77;76.23
66722;SHT31;53633;49.932;10.884;2022-12-29T12:18:49;10.77;76.12
66722;SHT31;53633;49.932;10.884;2022-12-29T12:21:25;10.77;76.29
66722;SHT31;53633;49.932;10.884;2022-12-29T12:24:07;10.68;76.44
66722;SHT31;53633;49.932;10.884;2022-12-29T12:26:42;10.68;76.71
66722;SHT31;53633;49.932;10.884;2022-12-29T12:29:15;10.71;76.76
66722;SHT31;53633;49.932;10.884;2022-12-29T12:31:47;10.71;77.13
66722;SHT31;53633;49.932;10.884;2022-12-29T12:34:20;10.71;77.22
66722;SHT31;53633;49.932;10.884;2022-12-29T12:37:09;10.69;77.52
66722;SHT31;53633;49.932;10.884;2022-12-29T12:39:49;10.71;77.70
66722;SHT31;53633;49.932;10.884;2022-12-29T12:42:32;10.74;77.75
66722;SHT31;53633;49.932;10.884;2022-12-29T12:45:27;10.75;77.77
66722;SHT31;53633;49.932;10.884;2022-12-29T12:48:05;10.75;77.65
66722;SHT31;53633;49.932;10.884;2022-12-29T12:50:46;10.77;77.74
66722;SHT31;53633;49.932;10.884;2022-12-29T12:53:36;10.82;77.52
66722;SHT31;53633;49.932;10.884;2022-12-29T12:56:26;10.84;77.71
66722;SHT31;53633;49.932;10.884;2022-12-29T12:58:59;10.81;77.87
66722;SHT31;53633;49.932;10.884;2022-12-29T13:01:38;10.81;78.11
66722;SHT31;53633;49.932;10.884;2022-12-29T13:04:24;10.78;78.23
66722;SHT31;53633;49.932;10.884;2022-12-29T13:07:01;10.79;78.44
66722;SHT31;53633;49.932;10.884;2022-12-29T13:09:41;10.77;78.52
66722;SHT31;53633;49.932;10.884;2022-12-29T13:12:17;10.74;78.70
66722;SHT31;53633;49.932;10.884;2022-12-29T13:14:57;10.79;78.90
66722;SHT31;53633;49.932;10.884;2022-12-29T13:17:30;10.72;79.09
66722;SHT31;53633;49.932;10.884;2022-12-29T13:20:02;10.79;79.01
66722;SHT31;53633;49.932;10.884;2022-12-29T13:22:34;10.78;79.13
66722;SHT31;53633;49.932;10.884;2022-12-29T13:25:19;10.85;79.30
66722;SHT31;53633;49.932;10.884;2022-12-29T13:27:52;10.89;78.95
66722;SHT31;53633;49.932;10.884;2022-12-29T13:30:22;10.98;77.50
66722;SHT31;53633;49.932;10.884;2022-12-29T13:32:57;11.16;76.56
66722;SHT31;53633;49.932;10.884;2022-12-29T13:35:34;11.27;76.21
66722;SHT31;53633;49.932;10.884;2022-12-29T13:38:10;11.32;75.99
66722;SHT31;53633;49.932;10.884;2022-12-29T13:40:42;11.37;75.99
66722;SHT31;53633;49.932;10.884;2022-12-29T13:43:11;11.40;75.77
66722;SHT31;53633;49.932;10.884;2022-12-29T13:45:39;11.39;75.95
66722;SHT31;53633;49.932;10.884;2022-12-29T13:48:12;11.33;76.24
66722;SHT31;53633;49.932;10.884;2022-12-29T13:50:40;11.29;76.07
66722;SHT31;53633;49.932;10.884;2022-12-29T13:53:14;11.34;75.84
66722;SHT31;53633;49.932;10.884;2022-12-29T13:55:49;11.39;75.57
66722;SHT31;53633;49.932;10.884;2022-12-29T13:58:21;11.37;75.93
66722;SHT31;53633;49.932;10.884;2022-12-29T14:00:57;11.36;77.16
66722;SHT31;53633;49.932;10.884;2022-12-29T14:03:43;11.26;79.80
66722;SHT31;53633;49.932;10.884;2022-12-29T14:06:15;11.15;81.48
66722;SHT31;53633;49.932;10.884;2022-12-29T14:08:43;10.94;82.75
66722;SHT31;53633;49.932;10.884;2022-12-29T14:11:14;10.79;83.41
66722;SHT31;53633;49.932;10.884;2022-12-29T14:13:44;10.74;84.18
66722;SHT31;53633;49.932;10.884;2022-12-29T14:16:25;10.65;84.19
66722;SHT31;53633;49.932;10.884;2022-12-29T14:18:52;10.56;84.85
66722;SHT31;53633;49.932;10.884;2022-12-29T14:21:22;10.51;85.15
66722;SHT31;53633;49.932;10.884;2022-12-29T14:23:50;10.47;85.29
66722;SHT31;53633;49.932;10.884;2022-12-29T14:26:34;10.37;84.53
66722;SHT31;53633;49.932;10.884;2022-12-29T14:29:44;10.50;83.18
66722;SHT31;53633;49.932;10.884;2022-12-29T14:32:36;10.51;83.15
66722;SHT31;53633;49.932;10.884;2022-12-29T14:38:13;10.50;82.65
66722;SHT31;53633;49.932;10.884;2022-12-29T14:40:41;10.54;81.63
66722;SHT31;53633;49.932;10.884;2022-12-29T14:43:12;10.64;80.57
66722;SHT31;53633;49.932;10.884;2022-12-29T14:45:42;10.77;80.06
66722;SHT31;53633;49.932;10.884;2022-12-29T14:48:29;10.81;79.42
66722;SHT31;53633;49.932;10.884;2022-12-29T14:50:56;10.85;78.99
66722;SHT31;53633;49.932;10.884;2022-12-29T14:53:44;10.71;79.34
66722;SHT31;53633;49.932;10.884;2022-12-29T14:56:12;10.65;79.33
66722;SHT31;53633;49.932;10.884;2022-12-29T14:58:46;10.58;79.18
66722;SHT31;53633;49.932;10.884;2022-12-29T15:01:32;10.41;79.85
66722;SHT31;53633;49.932;10.884;2022-12-29T15:04:06;10.43;79.42
66722;SHT31;53633;49.932;10.884;2022-12-29T15:06:40;10.43;79.61
66722;SHT31;53633;49.932;10.884;2022-12-29T15:09:16;10.48;79.56
66722;SHT31;53633;49.932;10.884;2022-12-29T15:11:48;10.39;79.58
66722;SHT31;53633;49.932;10.884;2022-12-29T15:14:31;10.36;79.48
66722;SHT31;53633;49.932;10.884;2022-12-29T15:17:01;10.21;79.73
66722;SHT31;53633;49.932;10.884;2022-12-29T15:19:28;10.24;79.99
66722;SHT31;53633;49.932;10.884;2022-12-29T15:21:55;10.21;79.81
66722;SHT31;53633;49.932;10.884;2022-12-29T15:24:22;10.10;80.36
66722;SHT31;53633;49.932;10.884;2022-12-29T15:26:51;10.12;80.23
66722;SHT31;53633;49.932;10.884;2022-12-29T15:29:30;10.19;80.02
66722;SHT31;53633;49.932;10.884;2022-12-29T15:32:00;10.08;80.57
66722;SHT31;53633;49.932;10.884;2022-12-29T15:34:30;10.03;80.88
66722;SHT31;53633;49.932;10.884;2022-12-29T15:36:57;10.09;80.89
66722;SHT31;53633;49.932;10.884;2022-12-29T15:39:28;9.98;81.22
66722;SHT31;53633;49.932;10.884;2022-12-29T15:41:56;9.98;81.40
66722;SHT31;53633;49.932;10.884;2022-12-29T15:44:25;9.96;81.59
66722;SHT31;53633;49.932;10.884;2022-12-29T15:46:53;9.92;81.82
66722;SHT31;53633;49.932;10.884;2022-12-29T15:49:22;9.88;81.89
66722;SHT31;53633;49.932;10.884;2022-12-29T15:51:57;9.83;82.10
66722;SHT31;53633;49.932;10.884;2022-12-29T15:54:24;9.89;82.10